Time;durP1;ratioP1;P1;durP2;ratioP2;P2;SDS_P1;SDS_P2;PMS_P1;PMS_P2;Temp;Humidity;BMP_temperature;BMP_pressure;BME280_temperature;BME280_humidity;BME280_pressure;Samples;Min_cycle;Max_cycle;Signal;HPM_P1;HPM_P2
2020/12/13 00:01:08;;;;;;;20.05;7.93;;;;;;;;;;4111251;35;20097;-82
2020/12/13 00:03:36;;;;;;;10.73;4.70;;;;;;;;;;4110487;27;20085;-82
2020/12/13 00:06:12;;;;;;;12.85;4.20;;;;;;;;;;4113214;35;20089;-82
2020/12/13 00:08:46;;;;;;;16.05;6.15;;;;;;;;;;4118433;27;20556;-83
2020/12/13 00:11:18;;;;;;;10.00;5.20;;;4.60;99.90;;;;;;4104688;27;20085;-85
2020/12/13 00:13:47;;;;;;;12.65;4.43;;;;;;;;;;4103556;35;20073;-84
2020/12/13 00:16:23;;;;;;;13.82;6.00;;;4.50;99.90;;;;;;4092646;27;20077;-82
2020/12/13 00:19:09;;;;;;;17.55;5.55;;;4.60;99.90;;;;;;4100559;27;20086;-84
2020/12/13 00:21:54;;;;;;;14.75;7.07;;;4.60;99.90;;;;;;4100422;27;20085;-83
2020/12/13 00:24:25;;;;;;;16.92;4.70;;;;;;;;;;4099299;35;20070;-82
2020/12/13 00:26:54;;;;;;;16.30;5.30;;;;;;;;;;4101981;27;20085;-82
2020/12/13 00:29:24;;;;;;;15.85;7.13;;;;;;;;;;4098469;35;20066;-82
2020/12/13 00:31:54;;;;;;;13.88;5.60;;;;;;;;;;4107520;27;20291;-82
2020/12/13 00:34:22;;;;;;;21.73;6.15;;;;;;;;;;4104236;27;20081;-82
2020/12/13 00:36:52;;;;;;;18.10;6.25;;;;;;;;;;4116705;27;20070;-84
2020/12/13 00:39:22;;;;;;;16.50;5.40;;;;;;;;;;4097425;27;20086;-82
2020/12/13 00:41:52;;;;;;;;;;;4.50;99.90;;;;;;4113534;27;20261;-82
2020/12/13 00:44:22;;;;;;;14.13;4.93;;;;;;;;;;4082586;27;20675;-82
2020/12/13 00:46:53;;;;;;;13.23;6.15;;;;;;;;;;4126232;27;20080;-82
2020/12/13 00:49:27;;;;;;;13.70;5.20;;;;;;;;;;4097086;27;20086;-82
2020/12/13 00:52:04;;;;;;;14.75;6.28;;;4.40;99.90;;;;;;4094507;35;20470;-82
2020/12/13 00:54:33;;;;;;;16.90;5.43;;;;;;;;;;4107147;35;20078;-82
2020/12/13 00:57:05;;;;;;;15.50;6.78;;;;;;;;;;4120653;27;20117;-82
2020/12/13 00:59:34;;;;;;;11.38;4.57;;;;;;;;;;4105854;35;20148;-82
2020/12/13 01:02:05;;;;;;;15.15;4.85;;;;;;;;;;4108883;27;20073;-82
2020/12/13 01:04:37;;;;;;;11.25;5.25;;;;;;;;;;4111498;27;20084;-82
2020/12/13 01:07:07;;;;;;;18.88;5.80;;;;;;;;;;4103113;27;20080;-82
2020/12/13 01:09:37;;;;;;;12.52;5.85;;;;;;;;;;4087227;27;20077;-82
2020/12/13 01:12:05;;;;;;;10.98;4.57;;;4.20;99.90;;;;;;4095853;27;20070;-82
2020/12/13 01:14:35;;;;;;;14.13;4.60;;;4.30;99.90;;;;;;4086981;27;20068;-83
2020/12/13 01:17:03;;;;;;;11.80;4.53;;;;;;;;;;4112164;27;20085;-82
2020/12/13 01:19:33;;;;;;;19.75;6.00;;;;;;;;;;4106269;35;20116;-82
2020/12/13 01:22:06;;;;;;;20.20;5.63;;;;;;;;;;4108164;27;20050;-83
2020/12/13 01:24:34;;;;;;;14.48;6.20;;;;;;;;;;4118376;27;20413;-82
2020/12/13 01:27:03;;;;;;;10.57;4.03;;;;;;;;;;4114321;27;20088;-82
2020/12/13 01:29:30;;;;;;;18.05;5.75;;;;;;;;;;4117836;27;20054;-82
2020/12/13 01:31:58;;;;;;;9.93;4.32;;;;;;;;;;4111656;27;20080;-81
2020/12/13 01:34:27;;;;;;;13.15;5.18;;;;;;;;;;4084922;27;20081;-83
2020/12/13 01:36:56;;;;;;;14.00;7.22;;;;;;;;;;4111802;27;20444;-82
2020/12/13 01:39:25;;;;;;;14.45;5.82;;;;;;;;;;4106022;27;20128;-82
2020/12/13 01:41:59;;;;;;;12.18;4.63;;;4.10;99.90;;;;;;4105550;35;20096;-82
2020/12/13 01:44:32;;;;;;;14.80;5.28;;;4.10;99.90;;;;;;4096752;35;20081;-83
2020/12/13 01:47:05;;;;;;;19.65;6.63;;;4.20;99.90;;;;;;4099192;27;20081;-82
2020/12/13 01:49:40;;;;;;;14.73;6.40;;;;;;;;;;4112091;27;20084;-82
2020/12/13 01:55:06;;;;;;;18.90;6.35;;;3.90;99.90;;;;;;4113685;27;20089;-82
2020/12/13 01:57:40;;;;;;;20.50;7.63;;;3.90;99.90;;;;;;4086272;35;20491;-83
2020/12/13 02:00:16;;;;;;;12.82;8.23;;;3.90;99.90;;;;;;4095251;35;20078;-81
2020/12/13 02:02:45;;;;;;;15.75;4.75;;;3.90;99.90;;;;;;4085405;35;20088;-83
2020/12/13 02:05:14;;;;;;;18.48;7.05;;;;;;;;;;4103973;35;20089;-83
2020/12/13 02:07:47;;;;;;;16.05;4.68;;;3.70;99.90;;;;;;4093063;27;20069;-82
2020/12/13 02:10:20;;;;;;;;;;;3.70;99.90;;;;;;4122112;27;20081;-83
2020/12/13 02:12:50;;;;;;;18.17;5.82;;;;;;;;;;4096557;35;19973;-84
2020/12/13 02:15:29;;;;;;;28.42;7.85;;;;;;;;;;4096897;35;20089;-83
2020/12/13 02:18:15;;;;;;;7.88;5.00;;;3.50;99.90;;;;;;4086229;35;20085;-83
2020/12/13 02:20:43;;;;;;;18.20;6.25;;;;;;;;;;4110585;35;20077;-84
2020/12/13 02:23:16;;;;;;;11.82;4.93;;;;;;;;;;4110133;35;20065;-84
2020/12/13 02:25:45;;;;;;;17.10;6.13;;;;;;;;;;4109948;35;20109;-82
2020/12/13 02:28:14;;;;;;;13.60;5.05;;;;;;;;;;4102719;27;20112;-82
2020/12/13 02:30:42;;;;;;;12.25;5.00;;;;;;;;;;4087787;35;20053;-81
2020/12/13 02:33:10;;;;;;;13.32;4.43;;;;;;;;;;4108228;35;20089;-82
2020/12/13 02:35:39;;;;;;;12.20;4.05;;;;;;;;;;4113738;27;20097;-83
2020/12/13 02:38:08;;;;;;;10.73;4.97;;;;;;;;;;4108459;35;20082;-82
2020/12/13 02:40:36;;;;;;;16.83;4.95;;;;;;;;;;4097003;35;20077;-82
2020/12/13 02:43:04;;;;;;;14.90;5.10;;;;;;;;;;4110328;27;20109;-82
2020/12/13 02:45:32;;;;;;;10.80;4.28;;;;;;;;;;4111582;27;20093;-82
2020/12/13 02:48:00;;;;;;;15.88;4.28;;;;;;;;;;4089285;27;20566;-82
2020/12/13 02:50:31;;;;;;;9.80;4.57;;;;;;;;;;4111281;27;20074;-83
2020/12/13 02:52:59;;;;;;;;;;;3.10;99.90;;;;;;4108528;35;20074;-82
2020/12/13 02:55:27;;;;;;;8.43;3.97;;;;;;;;;;4118536;27;19985;-82
2020/12/13 02:57:55;;;;;;;7.90;3.67;;;;;;;;;;4116020;27;20077;-84
2020/12/13 03:00:22;;;;;;;26.27;5.78;;;;;;;;;;4103072;27;20061;-84
2020/12/13 03:02:50;;;;;;;14.38;4.80;;;;;;;;;;4104239;27;20073;-82
2020/12/13 03:05:18;;;;;;;11.13;5.25;;;;;;;;;;4101110;27;20069;-85
2020/12/13 03:07:46;;;;;;;8.13;3.63;;;;;;;;;;4109607;35;20068;-83
2020/12/13 03:10:15;;;;;;;11.10;3.90;;;;;;;;;;4105203;27;20046;-85
2020/12/13 03:12:43;;;;;;;14.05;4.60;;;;;;;;;;4097638;35;20058;-82
2020/12/13 03:15:11;;;;;;;9.43;4.30;;;;;;;;;;4109338;27;20077;-84
2020/12/13 03:17:40;;;;;;;11.52;4.30;;;;;;;;;;4109951;35;20089;-82
2020/12/13 03:20:12;;;;;;;9.70;3.88;;;3.00;99.90;;;;;;4109859;27;20078;-83
2020/12/13 03:22:40;;;;;;;11.75;3.80;;;;;;;;;;4105072;27;20081;-82
2020/12/13 03:25:07;;;;;;;5.75;3.92;;;;;;;;;;4105727;27;20074;-86
2020/12/13 03:27:37;;;;;;;13.82;4.50;;;;;;;;;;4087136;35;20077;-82
2020/12/13 03:30:06;;;;;;;15.50;5.20;;;;;;;;;;4112422;27;20070;-83
2020/12/13 03:32:36;;;;;;;20.40;4.10;;;;;;;;;;4109980;27;20070;-84
2020/12/13 03:35:04;;;;;;;10.55;3.65;;;2.80;99.90;;;;;;4087524;35;20078;-85
2020/12/13 03:37:32;;;;;;;6.32;3.72;;;;;;;;;;4107946;35;20120;-82
2020/12/13 03:40:00;;;;;;;12.18;3.63;;;;;;;;;;4129144;27;20054;-84
2020/12/13 03:42:28;;;;;;;10.30;4.03;;;;;;;;;;4121713;27;20062;-82
2020/12/13 03:44:56;;;;;;;11.32;4.00;;;;;;;;;;4097491;27;20108;-83
2020/12/13 03:47:24;;;;;;;6.85;2.95;;;;;;;;;;4096855;35;20069;-83
2020/12/13 03:49:52;;;;;;;18.15;6.13;;;;;;;;;;4118376;27;20081;-82
2020/12/13 03:52:20;;;;;;;14.25;4.93;;;;;;;;;;4102187;27;20078;-86
2020/12/13 03:54:47;;;;;;;16.40;5.00;;;;;;;;;;4098084;35;20057;-83
2020/12/13 03:57:16;;;;;;;9.65;4.15;;;;;;;;;;4114108;27;20085;-83
2020/12/13 03:59:43;;;;;;;10.57;4.90;;;;;;;;;;4101154;27;20066;-82
2020/12/13 04:02:12;;;;;;;13.45;4.32;;;;;;;;;;4110565;35;20078;-83
2020/12/13 04:04:41;;;;;;;18.50;5.37;;;;;;;;;;4099054;35;20066;-83
2020/12/13 04:07:11;;;;;;;13.25;5.00;;;;;;;;;;4112824;35;20080;-82
2020/12/13 04:09:39;;;;;;;15.30;3.67;;;;;;;;;;4125678;27;20082;-84
2020/12/13 04:12:06;;;;;;;11.05;5.93;;;;;;;;;;4110461;35;20085;-85
2020/12/13 04:14:35;;;;;;;12.40;5.47;;;;;;;;;;4140494;27;20062;-86
2020/12/13 04:17:03;;;;;;;9.50;4.03;;;;;;;;;;4110392;35;20066;-83
2020/12/13 04:19:34;;;;;;;11.75;4.75;;;;;;;;;;4111711;27;20062;-89
2020/12/13 04:22:05;;;;;;;12.00;4.30;;;;;;;;;;4105903;27;20089;-84
2020/12/13 04:24:39;;;;;;;10.02;4.00;;;;;;;;;;4098423;35;20105;-85
2020/12/13 04:27:11;;;;;;;7.20;4.75;;;;;;;;;;4101819;27;20078;-84
2020/12/13 04:29:40;;;;;;;6.30;4.00;;;;;;;;;;4119185;27;20085;-83
2020/12/13 04:32:10;;;;;;;9.48;5.10;;;;;;;;;;4109412;27;20081;-85
2020/12/13 04:34:38;;;;;;;15.63;4.95;;;;;;;;;;4110312;27;20077;-82
2020/12/13 04:37:05;;;;;;;10.57;5.13;;;;;;;;;;4100316;27;20077;-83
2020/12/13 04:39:36;;;;;;;15.23;6.80;;;;;;;;;;4111039;27;20061;-83
2020/12/13 04:42:04;;;;;;;10.40;4.80;;;3.10;99.90;;;;;;4110135;35;20074;-83
2020/12/13 04:44:32;;;;;;;16.77;4.28;;;;;;;;;;4111672;35;20089;-82
2020/12/13 04:47:06;;;;;;;13.30;3.67;;;3.20;99.90;;;;;;4113521;27;20078;-86
2020/12/13 04:49:35;;;;;;;13.57;4.22;;;;;;;;;;4100132;27;20081;-87
2020/12/13 04:52:04;;;;;;;9.65;4.72;;;2.90;99.90;;;;;;4100542;35;20155;-86
2020/12/13 04:54:33;;;;;;;13.30;4.57;;;;;;;;;;4110814;35;20557;-83
2020/12/13 04:57:01;;;;;;;7.97;4.45;;;;;;;;;;4125585;27;20066;-86
2020/12/13 04:59:28;;;;;;;6.80;3.33;;;;;;;;;;4107783;27;20042;-84
2020/12/13 05:01:58;;;;;;;13.93;4.35;;;3.10;99.90;;;;;;4131867;27;20050;-83
2020/12/13 05:04:26;;;;;;;14.75;4.95;;;;;;;;;;4115427;27;20104;-82
2020/12/13 05:06:59;;;;;;;12.88;5.50;;;3.40;99.90;;;;;;4114715;27;20092;-82
2020/12/13 05:09:27;;;;;;;10.10;3.78;;;;;;;;;;4125354;27;20120;-83
2020/12/13 05:11:54;;;;;;;15.13;3.70;;;;;;;;;;4104933;27;20069;-83
2020/12/13 05:14:22;;;;;;;16.35;5.63;;;;;;;;;;4120768;27;20085;-83
2020/12/13 05:16:49;;;;;;;8.30;3.95;;;;;;;;;;4140004;27;20175;-83
2020/12/13 05:19:22;;;;;;;18.65;3.42;;;3.40;99.90;;;;;;4102692;35;20069;-82
2020/12/13 05:21:51;;;;;;;11.70;3.25;;;;;;;;;;4091138;35;20080;-82
2020/12/13 05:24:19;;;;;;;9.80;3.50;;;;;;;;;;4112594;27;20085;-82
2020/12/13 05:27:01;;;;;;;20.60;5.35;;;3.70;99.90;;;;;;4111851;35;20081;-82
2020/12/13 05:29:32;;;;;;;8.95;3.10;;;;;;;;;;4106430;27;20081;-82
2020/12/13 05:32:14;;;;;;;12.75;3.63;;;3.90;99.90;;;;;;4111576;35;20072;-82
2020/12/13 05:34:44;;;;;;;11.02;4.00;;;4.00;99.90;;;;;;4087188;35;20089;-83
2020/12/13 05:37:16;;;;;;;8.98;3.45;;;;;;;;;;4100903;27;20077;-83
2020/12/13 05:39:52;;;;;;;8.30;3.67;;;4.00;99.90;;;;;;4108830;35;20077;-82
2020/12/13 05:42:29;;;;;;;11.02;3.80;;;4.00;99.90;;;;;;4127077;27;20065;-82
2020/12/13 05:52:50;;;;;;;11.68;4.35;;;4.00;99.90;;;;;;4106541;35;20078;-82
2020/12/13 05:55:18;;;;;;;10.40;5.10;;;;;;;;;;4101334;27;20078;-81
2020/12/13 05:57:53;;;;;;;4.57;3.15;;;4.10;99.90;;;;;;4086909;27;20097;-85
2020/12/13 06:00:23;;;;;;;9.93;5.10;;;;;;;;;;4097289;35;20112;-83
2020/12/13 06:03:00;;;;;;;6.63;3.33;;;4.20;99.90;;;;;;4096037;35;20073;-82
2020/12/13 06:05:28;;;;;;;9.57;3.88;;;;;;;;;;4100003;27;20080;-83
2020/12/13 06:10:04;;;;;;;15.38;4.80;;;4.30;99.90;;;;;;5075907;27;949052;-85
2020/12/13 06:12:34;;;;;;;7.72;3.63;;;;;;;;;;5095902;28;20353;-84
2020/12/13 06:15:02;;;;;;;15.85;3.88;;;;;;;;;;5097357;28;20056;-85
2020/12/13 06:17:29;;;;;;;6.75;3.38;;;;;;;;;;5115477;28;20062;-86
2020/12/13 06:19:57;;;;;;;7.18;2.97;;;;;;;;;;5101065;28;20051;-85
2020/12/13 06:22:25;;;;;;;10.95;5.63;;;4.40;99.90;;;;;;5104338;28;20055;-85
2020/12/13 06:24:55;;;;;;;11.68;4.50;;;;;;;;;;5118033;28;20055;-85
2020/12/13 06:27:23;;;;;;;7.28;2.63;;;4.40;99.90;;;;;;5085467;28;20060;-84
2020/12/13 06:29:53;;;;;;;9.48;3.97;;;4.40;99.90;;;;;;5095002;28;20052;-86
2020/12/13 06:32:24;;;;;;;13.02;4.00;;;;;;;;;;5052476;28;20119;-84
2020/12/13 06:34:55;;;;;;;13.35;5.35;;;4.60;99.90;;;;;;5097510;28;20067;-86
2020/12/13 06:37:24;;;;;;;11.95;4.18;;;;;;;;;;5097878;28;20052;-86
2020/12/13 06:39:52;;;;;;;10.95;3.67;;;;;;;;;;5080407;28;20045;-86
2020/12/13 06:42:26;;;;;;;17.92;5.32;;;4.50;99.90;;;;;;5096098;28;20060;-83
2020/12/13 06:45:08;;;;;;;10.55;5.07;;;4.40;99.90;;;;;;5075280;28;20053;-85
2020/12/13 06:47:41;;;;;;;17.95;4.15;;;4.50;99.90;;;;;;5055521;28;20054;-84
2020/12/13 06:50:22;;;;;;;8.02;4.88;;;4.40;99.90;;;;;;5086709;28;20059;-86
2020/12/13 06:52:53;;;;;;;11.27;4.05;;;;;;;;;;5076462;28;20068;-88
2020/12/13 06:55:31;;;;;;;11.85;4.60;;;4.50;99.90;;;;;;5094959;28;20061;-89
2020/12/13 06:58:01;;;;;;;14.65;4.40;;;;;;;;;;5096199;28;20036;-86
2020/12/13 07:00:50;;;;;;;7.65;3.10;;;4.60;99.90;;;;;;5098724;28;20059;-85
2020/12/13 07:03:27;;;;;;;7.18;2.72;;;;;;;;;;5079219;28;20045;-85
2020/12/13 07:05:58;;;;;;;21.75;5.28;;;;;;;;;;5077136;28;20048;-89
2020/12/13 07:08:29;;;;;;;13.40;3.35;;;4.70;99.90;;;;;;5095385;28;20040;-88
2020/12/13 07:10:59;;;;;;;;;;;4.80;99.90;;;;;;5061939;28;20076;-85
2020/12/13 07:13:27;;;;;;;13.27;3.45;;;;;;;;;;5080340;28;19927;-86
2020/12/13 07:16:11;;;;;;;9.07;3.38;;;5.00;99.90;;;;;;5086081;28;20053;-84
2020/12/13 07:18:44;;;;;;;21.55;3.95;;;4.80;99.90;;;;;;5058865;28;20056;-83
2020/12/13 07:21:15;;;;;;;7.28;2.78;;;5.00;99.90;;;;;;5065015;28;20060;-86
2020/12/13 07:23:46;;;;;;;16.58;5.93;;;5.00;99.90;;;;;;5083645;28;20501;-87
2020/12/13 07:26:14;;;;;;;25.10;5.00;;;5.10;99.90;;;;;;5057087;28;20057;-89
2020/12/13 07:28:43;;;;;;;15.27;4.68;;;5.10;99.90;;;;;;5044401;28;20057;-89
2020/12/13 07:31:11;;;;;;;13.50;5.05;;;;;;;;;;5081696;28;20056;-89
2020/12/13 07:33:40;;;;;;;14.10;3.45;;;5.30;99.90;;;;;;5076488;28;20052;-85
2020/12/13 07:36:08;;;;;;;15.23;4.18;;;;;;;;;;5082832;28;20118;-86
2020/12/13 07:38:40;;;;;;;11.27;3.53;;;5.30;99.90;;;;;;5051125;28;20457;-85
2020/12/13 07:41:22;;;;;;;6.75;3.15;;;5.40;99.90;;;;;;5055361;28;20041;-86
2020/12/13 07:44:11;;;;;;;11.57;4.25;;;5.40;99.90;;;;;;5071335;28;20053;-86
2020/12/13 07:47:09;;;;;;;14.75;5.40;;;;;;;;;;5065100;28;20056;-88
2020/12/13 07:49:37;;;;;;;13.75;4.00;;;;;;;;;;5053636;28;20060;-85
2020/12/13 07:52:07;;;;;;;6.88;2.95;;;;;;;;;;5074067;28;20053;-89
2020/12/13 07:54:39;;;;;;;11.25;4.78;;;;;;;;;;5083763;28;20056;-86
2020/12/13 07:57:11;;;;;;;10.48;3.33;;;;;;;;;;5056769;28;20053;-86
2020/12/13 07:59:39;;;;;;;17.55;4.18;;;;;;;;;;5067994;28;20040;-85
2020/12/13 08:02:13;;;;;;;11.95;3.30;;;;;;;;;;5079544;28;20052;-86
2020/12/13 08:04:50;;;;;;;13.23;3.60;;;6.10;99.90;;;;;;5083695;28;20060;-86
2020/12/13 08:07:21;;;;;;;11.82;3.58;;;;;;;;;;5052170;28;20048;-91
2020/12/13 08:09:55;;;;;;;16.88;4.22;;;6.00;99.90;;;;;;5071947;28;20068;-86
2020/12/13 08:12:32;;;;;;;10.88;4.88;;;6.00;99.90;;;;;;5086631;28;20048;-88
2020/12/13 08:15:01;;;;;;;12.90;3.45;;;;;;;;;;5088942;28;20055;-86
2020/12/13 08:17:28;;;;;;;7.60;2.97;;;;;;;;;;5066567;28;20056;-89
2020/12/13 08:20:01;;;;;;;22.38;4.78;;;;;;;;;;5049281;28;20049;-86
2020/12/13 08:22:35;;;;;;;9.13;3.58;;;6.20;99.90;;;;;;5048390;28;20044;-86
2020/12/13 08:25:11;;;;;;;11.77;3.58;;;6.40;99.90;;;;;;5079408;28;20059;-86
2020/12/13 08:27:42;;;;;;;11.80;4.03;;;;;;;;;;5066385;28;20642;-87
2020/12/13 08:30:18;;;;;;;13.98;5.63;;;;;;;;;;5068678;28;20059;-92
2020/12/13 08:32:49;;;;;;;13.27;4.47;;;;;;;;;;5075167;28;20056;-85
2020/12/13 08:35:23;;;;;;;14.25;3.20;;;;;;;;;;5029742;28;20053;-91
2020/12/13 08:38:04;;;;;;;16.10;3.97;;;6.40;99.90;;;;;;5076652;28;20063;-88
2020/12/13 08:40:33;;;;;;;7.72;3.58;;;6.40;99.90;;;;;;5083106;28;20048;-90
2020/12/13 08:43:01;;;;;;;12.23;4.53;;;;;;;;;;5049830;28;20061;-88
2020/12/13 08:45:35;;;;;;;18.50;4.50;;;;;;;;;;5066394;28;20055;-87
2020/12/13 08:48:14;;;;;;;14.82;4.07;;;;;;;;;;5044325;28;20055;-90
2020/12/13 08:50:46;;;;;;;10.98;4.53;;;6.40;99.90;;;;;;5030234;28;20052;-88
2020/12/13 08:53:23;;;;;;;10.45;3.15;;;;;;;;;;5016234;28;20409;-86
2020/12/13 08:56:08;;;;;;;19.50;4.55;;;;;;;;;;5065583;28;20087;-88
2020/12/13 08:58:57;;;;;;;16.13;3.80;;;6.50;99.90;;;;;;5066467;28;20048;-89
2020/12/13 09:01:33;;;;;;;17.73;5.38;;;6.60;99.90;;;;;;5085379;28;20063;-86
2020/12/13 09:04:28;;;;;;;10.68;4.88;;;6.70;99.90;;;;;;5087119;28;20059;-86
2020/12/13 09:07:00;;;;;;;8.60;3.75;;;6.60;99.90;;;;;;5061383;28;20512;-87
2020/12/13 09:09:38;;;;;;;15.90;4.47;;;;;;;;;;5052974;28;20060;-85
2020/12/13 09:12:19;;;;;;;10.85;4.38;;;6.60;99.90;;;;;;5070138;28;20056;-85
2020/12/13 09:14:54;;;;;;;15.82;6.22;;;;;;;;;;5064359;28;20059;-87
2020/12/13 09:17:27;;;;;;;13.43;3.58;;;;;;;;;;5033794;28;20063;-86
2020/12/13 09:20:07;;;;;;;16.52;4.07;;;6.60;99.90;;;;;;5063311;28;20053;-86
2020/12/13 09:22:36;;;;;;;14.27;6.07;;;;;;;;;;5053593;28;20053;-86
2020/12/13 09:25:08;;;;;;;12.30;5.60;;;;;;;;;;5049589;28;20052;-86
2020/12/13 09:27:37;;;;;;;16.75;4.03;;;;;;;;;;5064504;28;20127;-89
2020/12/13 09:30:14;;;;;;;15.45;4.70;;;;;;;;;;5048493;28;20044;-89
2020/12/13 09:32:52;;;;;;;28.45;4.80;;;;;;;;;;5054761;28;20045;-90
2020/12/13 09:35:23;;;;;;;14.32;4.55;;;;;;;;;;5052559;28;20057;-87
2020/12/13 09:37:52;;;;;;;12.73;4.00;;;;;;;;;;5058029;28;20049;-87
2020/12/13 09:40:28;;;;;;;20.15;7.93;;;;;;;;;;5065100;28;20087;-91
2020/12/13 09:43:02;;;;;;;22.95;6.63;;;6.90;99.90;;;;;;5053185;28;20049;-94
2020/12/13 09:45:35;;;;;;;16.33;5.68;;;;;;;;;;5050756;28;20053;-91
2020/12/13 09:48:03;;;;;;;14.57;5.50;;;;;;;;;;5063460;28;20049;-87
2020/12/13 09:50:35;;;;;;;;;;;6.90;99.90;;;;;;5056084;28;20044;-87
2020/12/13 09:53:33;;;;;;;13.93;5.03;;;;;;;;;;5052692;28;19921;-87
2020/12/13 09:56:03;;;;;;;12.18;4.82;;;;;;;;;;5062490;28;20060;-87
2020/12/13 09:58:39;;;;;;;12.65;4.95;;;7.20;99.90;;;;;;5049660;28;20392;-85
2020/12/13 10:01:09;;;;;;;16.48;5.35;;;7.20;99.90;;;;;;5031786;28;20038;-88
2020/12/13 10:03:48;;;;;;;12.02;5.38;;;;;;;;;;5068085;28;20049;-84
2020/12/13 10:09:17;;;;;;;20.15;6.93;;;7.20;99.90;;;;;;5060507;28;20048;-90
2020/12/13 10:11:48;;;;;;;12.23;3.70;;;;;;;;;;5060686;28;20068;-89
2020/12/13 10:14:20;;;;;;;15.68;4.63;;;;;;;;;;5052963;28;20044;-88
2020/12/13 10:16:50;;;;;;;10.88;6.00;;;;;;;;;;5058223;28;20060;-86
2020/12/13 10:19:24;;;;;;;18.15;4.40;;;;;;;;;;5054813;28;20055;-85
2020/12/13 10:21:57;;;;;;;13.25;4.43;;;;;;;;;;5052029;28;20041;-87
2020/12/13 10:24:37;;;;;;;15.70;6.72;;;;;;;;;;5057941;28;20044;-86
2020/12/13 10:27:05;;;;;;;11.75;4.07;;;;;;;;;;5041977;28;20335;-87
2020/12/13 10:29:41;;;;;;;16.83;3.65;;;;;;;;;;5063495;28;20060;-88
2020/12/13 10:32:19;;;;;;;11.93;4.63;;;;;;;;;;5062713;28;20049;-89
2020/12/13 10:34:48;;;;;;;13.13;4.32;;;;;;;;;;5053075;28;20073;-86
2020/12/13 10:37:20;;;;;;;19.23;3.95;;;;;;;;;;5056012;28;20055;-88
2020/12/13 10:40:20;;;;;;;20.23;4.57;;;7.80;99.90;;;;;;5072393;28;20187;-85
2020/12/13 10:43:03;;;;;;;15.32;3.55;;;8.00;99.90;;;;;;5043909;28;20045;-87
2020/12/13 10:45:37;;;;;;;11.57;4.03;;;;;;;;;;5050230;28;20762;-86
2020/12/13 10:48:24;;;;;;;16.13;4.20;;;;;;;;;;5064052;28;20056;-85
2020/12/13 10:50:55;;;;;;;;;;;7.90;99.90;;;;;;5064846;28;20067;-87
2020/12/13 10:53:26;;;;;;;13.15;3.40;;;;;;;;;;5066997;28;19921;-86
2020/12/13 10:55:59;;;;;;;15.15;3.13;;;;;;;;;;5062256;28;20056;-85
2020/12/13 10:58:30;;;;;;;12.70;4.90;;;;;;;;;;5060865;28;20053;-88
2020/12/13 11:00:58;;;;;;;11.10;3.17;;;;;;;;;;5060923;28;20077;-84
2020/12/13 11:03:51;;;;;;;18.73;4.57;;;;;;;;;;5063642;28;20057;-86
2020/12/13 11:06:19;;;;;;;14.98;2.97;;;;;;;;;;5065210;28;20057;-86
2020/12/13 11:08:46;;;;;;;19.63;4.72;;;;;;;;;;5073085;28;20064;-84
2020/12/13 11:11:14;;;;;;;23.52;6.10;;;;;;;;;;5070657;28;20067;-85
2020/12/13 11:13:47;;;;;;;15.75;4.65;;;;;;;;;;5058277;28;20053;-87
2020/12/13 11:16:20;;;;;;;17.92;3.60;;;;;;;;;;5058845;28;20055;-85
2020/12/13 11:18:56;;;;;;;17.70;3.88;;;;;;;;;;5046104;28;20057;-86
2020/12/13 11:21:28;;;;;;;11.93;3.13;;;;;;;;;;5044562;28;20049;-86
2020/12/13 11:23:56;;;;;;;7.72;3.42;;;;;;;;;;5063712;28;20189;-86
2020/12/13 11:26:25;;;;;;;7.70;3.03;;;;;;;;;;5044544;28;20065;-85
2020/12/13 11:28:53;;;;;;;10.38;3.10;;;;;;;;;;5060544;28;20092;-85
2020/12/13 11:31:21;;;;;;;14.88;2.72;;;;;;;;;;5060005;28;20100;-86
2020/12/13 11:33:50;;;;;;;6.85;3.03;;;;;;;;;;5046178;28;20037;-85
2020/12/13 11:36:22;;;;;;;13.48;2.72;;;;;;;;;;5058165;28;20053;-86
2020/12/13 11:38:50;;;;;;;10.48;4.55;;;;;;;;;;5056700;28;20049;-85
2020/12/13 11:41:19;;;;;;;8.73;2.90;;;;;;;;;;5056908;28;20049;-87
2020/12/13 11:43:49;;;;;;;13.88;2.58;;;;;;;;;;5044956;28;20068;-85
2020/12/13 11:46:24;;;;;;;8.93;2.80;;;;;;;;;;5048405;28;20111;-86
2020/12/13 11:48:54;;;;;;;8.35;2.50;;;;;;;;;;5053416;28;20057;-86
2020/12/13 11:51:25;;;;;;;10.00;3.00;;;8.20;99.90;;;;;;5060531;28;20057;-86
2020/12/13 11:53:53;;;;;;;3.72;1.70;;;;;;;;;;5060029;28;20064;-85
2020/12/13 11:56:23;;;;;;;5.55;2.42;;;8.20;99.90;;;;;;5056721;28;20052;-88
2020/12/13 11:58:52;;;;;;;5.55;1.95;;;;;;;;;;5040298;28;20118;-88
2020/12/13 12:01:25;;;;;;;5.00;2.85;;;;;;;;;;5045486;28;20053;-88
2020/12/13 12:03:53;;;;;;;10.38;2.38;;;;;;;;;;5062974;28;20044;-85
2020/12/13 12:06:23;;;;;;;5.05;1.83;;;;;;;;;;5023685;28;20051;-86
2020/12/13 12:09:04;;;;;;;14.20;2.60;;;;;;;;;;5065636;28;20053;-86
2020/12/13 12:11:33;;;;;;;2.75;1.67;;;;;;;;;;5042776;28;20051;-85
2020/12/13 12:14:01;;;;;;;6.07;1.65;;;;;;;;;;5059141;28;20048;-86
2020/12/13 12:16:29;;;;;;;1.35;1.17;;;;;;;;;;5071909;28;20044;-85
2020/12/13 12:19:01;;;;;;;5.60;2.85;;;;;;;;;;5064627;28;20049;-85
2020/12/13 12:21:36;;;;;;;9.10;3.22;;;;;;;;;;5066142;28;20048;-86
2020/12/13 12:24:04;;;;;;;6.07;3.22;;;;;;;;;;5079613;28;20044;-91
2020/12/13 12:26:33;;;;;;;4.75;2.53;;;8.80;99.90;;;;;;5079791;28;20040;-87
2020/12/13 12:29:04;;;;;;;5.40;1.67;;;9.00;99.90;;;;;;5080856;28;20041;-86
2020/12/13 12:31:34;;;;;;;4.25;2.28;;;;;;;;;;5074623;28;20048;-87
2020/12/13 12:34:04;;;;;;;3.10;1.92;;;;;;;;;;5056996;28;20044;-90
2020/12/13 12:36:32;;;;;;;3.08;1.58;;;;;;;;;;5051570;28;20065;-87
2020/12/13 12:39:00;;;;;;;10.02;1.75;;;;;;;;;;5049471;28;20365;-87
2020/12/13 12:41:30;;;;;;;2.33;1.58;;;;;;;;;;5067481;28;20036;-87
2020/12/13 12:44:05;;;;;;;4.05;1.73;;;;;;;;;;5070775;28;20052;-87
2020/12/13 12:46:34;;;;;;;15.45;2.85;;;;;;;;;;5051369;28;20040;-92
2020/12/13 12:49:06;;;;;;;6.40;1.65;;;9.00;99.90;;;;;;5060984;28;20061;-86
2020/12/13 12:51:34;;;;;;;2.88;1.55;;;;;;;;;;5078675;28;20056;-87
2020/12/13 12:54:03;;;;;;;1.88;1.63;;;;;;;;;;5072125;28;20056;-87
2020/12/13 12:56:32;;;;;;;2.63;1.58;;;;;;;;;;5023353;28;20409;-86
2020/12/13 12:59:08;;;;;;;3.28;1.95;;;;;;;;;;5040958;28;20055;-88
2020/12/13 13:04:16;;;;;;;3.65;1.70;;;;;;;;;;5073365;28;20037;-89
2020/12/13 13:06:58;;;;;;;2.03;1.67;;;;;;;;;;5077299;28;20368;-90
2020/12/13 13:11:54;;;;;;;1.63;1.30;;;;;;;;;;5043441;28;20059;-88
2020/12/13 13:14:23;;;;;;;2.65;1.23;;;8.90;99.90;;;;;;5070388;28;20052;-88
2020/12/13 13:17:01;;;;;;;6.20;1.70;;;;;;;;;;5069648;28;20056;-87
2020/12/13 13:19:32;;;;;;;16.55;4.47;;;;;;;;;;5063716;28;20041;-89
2020/12/13 13:22:02;;;;;;;1.88;1.65;;;;;;;;;;5074949;28;20052;-88
2020/12/13 13:24:36;;;;;;;7.53;1.95;;;9.20;99.90;;;;;;5069573;28;20056;-86
2020/12/13 13:27:05;;;;;;;5.75;1.42;;;;;;;;;;5068486;28;20056;-87
2020/12/13 13:29:35;;;;;;;3.15;1.33;;;;;;;;;;5057187;28;20068;-86
2020/12/13 13:32:03;;;;;;;5.47;1.23;;;;;;;;;;5071090;28;20059;-88
2020/12/13 13:34:34;;;;;;;2.92;1.65;;;;;;;;;;5069201;28;20396;-89
2020/12/13 13:37:06;;;;;;;2.47;1.50;;;;;;;;;;5055310;28;20048;-92
2020/12/13 13:39:40;;;;;;;1.20;1.08;;;;;;;;;;5073089;28;20048;-90
2020/12/13 13:42:11;;;;;;;1.37;1.30;;;;;;;;;;5044285;28;20059;-87
2020/12/13 13:44:47;;;;;;;;;;;9.20;99.90;;;;;;5060572;28;20040;-89
2020/12/13 13:47:28;;;;;;;1.13;1.10;;;;;;;;;;5073459;28;19927;-88
2020/12/13 13:50:04;;;;;;;2.22;1.35;;;;;;;;;;5075042;28;20048;-91
2020/12/13 13:52:34;;;;;;;5.78;1.40;;;;;;;;;;5071555;28;20052;-88
2020/12/13 13:57:42;;;;;;;3.10;1.58;;;;;;;;;;5044422;28;20067;-88
2020/12/13 14:00:11;;;;;;;4.32;1.98;;;;;;;;;;5062445;28;20040;-89
2020/12/13 14:02:39;;;;;;;12.23;2.03;;;;;;;;;;5061782;28;20049;-87
2020/12/13 14:05:11;;;;;;;5.47;1.77;;;;;;;;;;5058668;28;20051;-90
2020/12/13 14:10:10;;;;;;;2.83;1.50;;;;;;;;;;5073321;28;20052;-89
2020/12/13 14:12:40;;;;;;;3.30;1.90;;;;;;;;;;5062265;28;20049;-87
2020/12/13 14:15:10;;;;;;;9.95;4.47;;;;;;;;;;5036173;28;20048;-87
2020/12/13 14:17:40;;;;;;;16.58;4.10;;;;;;;;;;5061040;28;20025;-87
2020/12/13 14:20:14;;;;;;;9.65;4.47;;;;;;;;;;5076206;28;20066;-88
2020/12/13 14:22:42;;;;;;;22.15;5.15;;;;;;;;;;5077682;28;20053;-89
2020/12/13 14:25:15;;;;;;;10.70;4.17;;;9.30;99.90;;;;;;5069013;28;20059;-87
2020/12/13 14:27:50;;;;;;;11.65;2.38;;;9.40;99.90;;;;;;5056959;28;20051;-92
2020/12/13 14:30:19;;;;;;;20.55;4.13;;;;;;;;;;5063828;28;20051;-91
2020/12/13 14:32:49;;;;;;;11.45;2.80;;;;;;;;;;5039945;28;20063;-90
2020/12/13 14:35:22;;;;;;;8.43;2.50;;;;;;;;;;5088957;28;20059;-89
2020/12/13 14:37:55;;;;;;;9.43;3.20;;;;;;;;;;5067197;28;20044;-86
2020/12/13 14:40:27;;;;;;;12.48;2.70;;;;;;;;;;5081342;28;20045;-88
2020/12/13 14:43:03;;;;;;;6.55;2.17;;;;;;;;;;5056017;28;20053;-86
2020/12/13 14:45:54;;;;;;;8.73;3.13;;;;;;;;;;5088742;28;20041;-87
2020/12/13 14:48:31;;;;;;;13.32;2.90;;;9.50;99.90;;;;;;5090069;28;20040;-88
2020/12/13 14:51:12;;;;;;;6.68;3.13;;;;;;;;;;5056253;28;20049;-90
2020/12/13 14:53:49;;;;;;;4.88;2.83;;;;;;;;;;5043337;28;20549;-89
2020/12/13 14:56:32;;;;;;;4.50;1.63;;;;;;;;;;5065561;28;20048;-88
2020/12/13 14:59:31;;;;;;;7.22;3.00;;;;;;;;;;5051142;28;20047;-87